Time;durP1;ratioP1;P1;durP2;ratioP2;P2;SDS_P1;SDS_P2;PMS_P1;PMS_P2;Temp;Humidity;BMP_temperature;BMP_pressure;BME280_temperature;BME280_humidity;BME280_pressure;Samples;Min_cycle;Max_cycle;Signal;HPM_P1;HPM_P2
2021/05/10 00:01:19;;;;;;;5.85;3.80;;;;;;;11.18;61.34;99715.91;1622497;88;21293;-76
2021/05/10 00:03:46;;;;;;;7.42;3.90;;;;;;;11.15;61.52;99721.94;1624646;88;21160;-76
2021/05/10 00:06:14;;;;;;;6.60;4.03;;;;;;;11.12;61.61;99726.16;1625233;88;21749;-76
2021/05/10 00:08:42;;;;;;;6.10;4.20;;;;;;;11.10;61.65;99724.98;1625213;88;21574;-77
2021/05/10 00:11:09;;;;;;;6.45;3.60;;;;;;;11.06;61.63;99722.25;1625527;88;21186;-77
2021/05/10 00:13:36;;;;;;;6.47;4.30;;;;;;;11.02;61.74;99716.85;1625366;88;21723;-77
2021/05/10 00:16:03;;;;;;;7.47;4.17;;;;;;;10.99;61.79;99721.93;1625397;88;21190;-77
2021/05/10 00:18:28;;;;;;;4.95;3.77;;;;;;;10.95;62.12;99717.02;1625416;88;21339;-77
2021/05/10 00:20:54;;;;;;;8.88;4.08;;;;;;;10.91;61.95;99718.25;1625540;88;21122;-77
2021/05/10 00:23:20;;;;;;;8.05;4.65;;;;;;;10.86;62.30;99715.14;1625388;88;21176;-77
2021/05/10 00:25:46;;;;;;;7.22;4.12;;;;;;;10.80;61.95;99716.51;1625429;88;21704;-77
2021/05/10 00:28:13;;;;;;;8.25;4.53;;;;;;;10.76;62.11;99717.25;1625251;88;21174;-77
2021/05/10 00:30:39;;;;;;;6.83;4.25;;;;;;;10.73;62.37;99711.39;1625444;88;21366;-77
2021/05/10 00:33:05;;;;;;;7.83;4.47;;;;;;;10.70;62.17;99712.48;1625429;88;21150;-77
2021/05/10 00:35:32;;;;;;;7.50;4.75;;;;;;;10.67;62.12;99719.32;1625420;88;21143;-77
2021/05/10 00:37:58;;;;;;;7.80;4.37;;;;;;;10.64;62.40;99706.38;1625307;88;22396;-77
2021/05/10 00:40:29;;;;;;;6.53;3.92;;;;;;;10.62;62.34;99712.74;1625437;88;21192;-77
2021/05/10 00:42:55;;;;;;;8.43;4.55;;;;;;;10.60;62.62;99713.38;1625545;88;21303;-77
2021/05/10 00:45:23;;;;;;;7.37;4.53;;;;;;;10.56;62.69;99714.08;1625346;88;21588;-77
2021/05/10 00:47:50;;;;;;;8.55;5.35;;;;;;;10.51;62.69;99718.42;1625386;88;21537;-77
2021/05/10 00:50:17;;;;;;;9.23;5.08;;;;;;;10.47;62.74;99717.00;1625477;88;21524;-77
2021/05/10 00:52:43;;;;;;;7.60;4.50;;;;;;;10.42;62.71;99723.61;1625081;88;21397;-77
2021/05/10 00:55:12;;;;;;;9.45;5.00;;;;;;;10.38;63.40;99717.75;1625533;88;21178;-77
2021/05/10 00:58:02;;;;;;;8.83;5.25;;;;;;;10.35;62.79;99724.59;1625530;88;21322;-77
2021/05/10 01:00:37;;;;;;;7.92;4.85;;;;;;;10.32;63.10;99717.76;1625363;88;21621;-77
2021/05/10 01:03:04;;;;;;;8.30;5.08;;;;;;;10.27;63.24;99715.99;1625375;88;21346;-77
2021/05/10 01:05:30;;;;;;;9.73;5.85;;;;;;;10.24;63.23;99712.73;1625471;88;21164;-77
2021/05/10 01:07:57;;;;;;;8.83;5.08;;;;;;;10.20;63.10;99724.47;1625432;88;21272;-77
2021/05/10 01:10:25;;;;;;;6.83;4.45;;;;;;;10.17;63.43;99720.76;1625463;88;21130;-77
2021/05/10 01:12:52;;;;;;;7.55;4.92;;;;;;;10.13;63.49;99717.53;1625196;88;21188;-77
2021/05/10 01:15:23;;;;;;;7.87;5.05;;;;;;;10.10;63.47;99722.59;1625367;88;21142;-77
2021/05/10 01:17:51;;;;;;;7.28;4.65;;;;;;;10.08;63.35;99723.19;1625486;88;21123;-77
2021/05/10 01:20:17;;;;;;;8.45;5.08;;;;;;;10.07;63.26;99719.37;1625397;87;21621;-77
2021/05/10 01:22:46;;;;;;;7.75;4.55;;;;;;;10.05;63.44;99709.42;1625465;88;21130;-77
2021/05/10 01:25:23;;;;;;;6.35;4.97;;;;;;;10.01;63.56;99716.73;1625554;88;21595;-77
2021/05/10 01:27:49;;;;;;;6.30;4.45;;;;;;;9.98;63.77;99708.23;1625004;86;21156;-77
2021/05/10 01:30:30;;;;;;;9.10;5.80;;;;;;;9.92;63.86;99706.09;1625458;88;21822;-77
2021/05/10 01:32:58;;;;;;;8.38;4.80;;;;;;;9.88;63.80;99709.45;1622273;88;21124;-78
2021/05/10 01:35:30;;;;;;;7.30;4.08;;;;;;;9.82;63.74;99704.17;1625397;88;21161;-78
2021/05/10 01:37:57;;;;;;;9.47;4.47;;;;;;;9.79;63.91;99704.42;1625555;88;21153;-78
2021/05/10 01:40:23;;;;;;;7.62;3.98;;;;;;;9.76;64.03;99695.92;1625502;88;21268;-78
2021/05/10 01:42:50;;;;;;;8.95;5.10;;;;;;;9.73;64.16;99690.41;1625334;88;21115;-78
2021/05/10 01:45:16;;;;;;;7.35;5.15;;;;;;;9.73;64.22;99697.48;1625307;88;21280;-78
2021/05/10 01:47:42;;;;;;;10.50;4.50;;;;;;;9.71;63.99;99702.88;1625500;88;21613;-78
2021/05/10 01:50:20;;;;;;;7.53;5.00;;;;;;;9.69;64.26;99699.52;1625653;88;21176;-78
2021/05/10 01:52:48;;;;;;;7.17;4.30;;;;;;;9.66;64.31;99693.17;1625288;88;21122;-79
2021/05/10 01:55:16;;;;;;;7.62;4.20;;;;;;;9.63;64.31;99694.73;1625468;88;21168;-78
2021/05/10 01:57:51;;;;;;;7.05;4.40;;;;;;;9.60;64.29;99685.75;1625241;88;21193;-78
2021/05/10 02:00:22;;;;;;;6.50;4.65;;;;;;;9.57;64.52;99688.63;1610993;88;21126;-78
2021/05/10 02:02:48;;;;;;;7.75;4.78;;;;;;;9.51;64.07;99679.88;1625212;88;21328;-78
2021/05/10 02:05:20;;;;;;;6.15;4.30;;;;;;;9.47;64.04;99692.94;1625588;88;21115;-78
2021/05/10 02:07:51;;;;;;;;;;;;;;;9.43;64.22;99688.87;1628036;88;21202;-78
2021/05/10 02:10:28;;;;;;;7.12;4.20;;;;;;;9.39;64.11;99690.42;1625522;88;20304;-78
2021/05/10 02:13:04;;;;;;;7.47;5.50;;;;;;;9.33;64.21;99688.27;1625470;88;21099;-78
2021/05/10 02:15:46;;;;;;;4.92;3.55;;;;;;;9.29;64.01;99680.25;1625546;88;21593;-76
2021/05/10 02:18:15;;;;;;;6.53;4.37;;;;;;;9.27;63.87;99678.20;1625746;88;21186;-78
2021/05/10 02:20:42;;;;;;;5.03;3.77;;;;;;;9.26;63.86;99674.39;1625553;88;21640;-78
2021/05/10 02:23:12;;;;;;;11.80;3.75;;;;;;;9.27;63.79;99687.42;1625508;88;21545;-78
2021/05/10 02:25:45;;;;;;;4.67;3.02;;;;;;;9.27;63.77;99682.64;1625139;87;21186;-77
2021/05/10 02:28:14;;;;;;;5.22;3.47;;;;;;;9.27;63.70;99686.10;1625649;88;21111;-76
2021/05/10 02:30:42;;;;;;;9.08;3.80;;;;;;;9.28;63.64;99695.70;1625596;88;21202;-76
2021/05/10 02:33:15;;;;;;;4.20;2.90;;;;;;;9.28;63.57;99697.02;1625386;88;21118;-76
2021/05/10 02:35:43;;;;;;;4.70;3.05;;;;;;;9.29;63.49;99690.78;1625632;88;21260;-78
2021/05/10 02:38:11;;;;;;;4.17;3.10;;;;;;;9.30;63.57;99695.08;1625474;88;21106;-77
2021/05/10 02:40:37;;;;;;;5.67;3.72;;;;;;;9.29;63.54;99694.73;1625569;88;21173;-77
2021/05/10 02:43:04;;;;;;;5.55;3.30;;;;;;;9.30;63.55;99685.87;1625508;88;21126;-78
2021/05/10 02:45:30;;;;;;;5.25;3.85;;;;;;;9.30;63.58;99690.30;1625506;88;21112;-78
2021/05/10 02:47:57;;;;;;;4.72;3.17;;;;;;;9.31;63.46;99692.83;1625558;88;21705;-78
2021/05/10 02:50:26;;;;;;;5.90;3.22;;;;;;;9.33;63.50;99688.75;1625529;88;21144;-78
2021/05/10 02:52:54;;;;;;;4.58;3.15;;;;;;;9.32;63.51;99685.28;1625328;88;21193;-78
2021/05/10 02:55:20;;;;;;;5.87;3.35;;;;;;;9.34;63.38;99691.73;1625551;88;21164;-78
2021/05/10 02:57:48;;;;;;;3.52;2.55;;;;;;;9.34;63.27;99693.88;1625502;88;21280;-78
2021/05/10 03:00:18;;;;;;;6.78;3.72;;;;;;;9.34;63.38;99697.83;1625589;88;21352;-78
2021/05/10 03:02:44;;;;;;;8.00;2.67;;;;;;;9.34;63.33;99696.52;1625537;88;21114;-78
2021/05/10 03:05:12;;;;;;;4.47;3.15;;;;;;;9.34;63.21;99697.00;1625730;88;21170;-78
2021/05/10 03:07:39;;;;;;;7.95;2.50;;;;;;;9.32;63.25;99699.77;1625466;88;21166;-78
2021/05/10 03:10:09;;;;;;;6.85;4.03;;;;;;;9.31;63.16;99700.73;1625665;88;21099;-78
2021/05/10 03:12:36;;;;;;;6.30;2.75;;;;;;;9.30;63.24;99695.56;1625453;88;21194;-76
2021/05/10 03:15:09;;;;;;;4.37;3.35;;;;;;;9.29;63.20;99695.22;1625542;88;21211;-77
2021/05/10 03:17:36;;;;;;;3.90;2.83;;;;;;;9.27;63.66;99700.58;1625659;88;21150;-77
2021/05/10 03:20:05;;;;;;;4.50;2.98;;;;;;;9.23;63.65;99695.20;1625677;88;21692;-77
2021/05/10 03:22:32;;;;;;;7.45;3.70;;;;;;;9.23;63.41;99703.09;1625416;88;21115;-77
2021/05/10 03:24:58;;;;;;;5.40;2.42;;;;;;;9.21;63.47;99695.78;1625688;88;21569;-77
2021/05/10 03:27:25;;;;;;;4.60;2.72;;;;;;;9.22;63.33;99696.65;1622231;88;21126;-77
2021/05/10 03:29:51;;;;;;;4.05;2.62;;;;;;;9.21;63.27;99698.90;1647728;86;21120;-76
2021/05/10 03:32:17;;;;;;;3.92;2.58;;;;;;;9.21;63.16;99702.37;1625394;88;21256;-76
2021/05/10 03:34:43;;;;;;;5.58;2.30;;;;;;;9.22;63.14;99701.43;1625511;88;21130;-77
2021/05/10 03:37:09;;;;;;;4.05;2.27;;;;;;;9.26;63.02;99704.66;1625411;88;21606;-77
2021/05/10 03:39:35;;;;;;;3.75;2.40;;;;;;;9.28;63.18;99692.20;1625550;88;21150;-76
2021/05/10 03:42:01;;;;;;;3.95;2.33;;;;;;;9.30;63.04;99695.08;1625416;88;21774;-76
2021/05/10 03:44:26;;;;;;;5.85;2.45;;;;;;;9.32;63.16;99701.56;1625571;88;21146;-76
2021/05/10 03:46:52;;;;;;;3.92;2.80;;;;;;;9.33;63.26;99697.48;1625267;88;21296;-76
2021/05/10 03:49:18;;;;;;;4.97;2.37;;;;;;;9.36;63.11;99705.63;1625645;88;21170;-76
2021/05/10 03:51:44;;;;;;;4.37;2.52;;;;;;;9.36;63.24;99701.19;1625333;88;21142;-76
2021/05/10 03:54:10;;;;;;;4.42;2.10;;;;;;;9.39;63.13;99704.08;1625608;88;21197;-76
2021/05/10 03:56:36;;;;;;;2.92;2.30;;;;;;;9.42;63.10;99700.38;1625449;88;21151;-77
2021/05/10 03:59:02;;;;;;;4.08;2.20;;;;;;;9.44;63.22;99698.44;1625437;88;21292;-77
2021/05/10 04:01:28;;;;;;;2.37;1.87;;;;;;;9.48;63.13;99698.10;1625394;88;21195;-77
2021/05/10 04:07:23;;;;;;;4.80;1.80;;;;;;;9.58;63.00;99685.88;1625441;88;21223;-77
2021/05/10 04:09:23;;;;;;;6.30;2.15;;;;;;;9.65;62.98;99687.55;1615159;88;21660;-78
2021/05/10 04:14:19;;;;;;;5.80;2.12;;;;;;;9.80;62.74;99688.95;1624689;88;21162;-77
2021/05/10 04:16:45;;;;;;;4.72;2.30;;;;;;;9.91;62.56;99689.93;1625367;88;21172;-77
2021/05/10 04:19:11;;;;;;;2.25;1.70;;;;;;;10.00;62.45;99683.89;1625517;88;21170;-77
2021/05/10 04:21:37;;;;;;;5.92;1.77;;;;;;;10.10;62.36;99683.05;1622769;88;21849;-77
2021/05/10 04:24:04;;;;;;;2.45;1.77;;;;;;;10.20;62.12;99682.28;1625514;88;21126;-77
2021/05/10 04:26:30;;;;;;;3.42;1.80;;;;;;;10.29;62.07;99668.39;1625428;88;21189;-77
2021/05/10 04:28:56;;;;;;;3.37;1.72;;;;;;;10.38;62.16;99674.72;1625482;88;21164;-77
2021/05/10 04:31:22;;;;;;;1.85;1.47;;;;;;;10.47;61.55;99668.70;1625526;88;21717;-78
2021/05/10 04:33:48;;;;;;;2.33;2.08;;;;;;;10.62;61.20;99665.25;1625358;88;21513;-77
2021/05/10 04:36:14;;;;;;;9.15;2.20;;;;;;;10.71;61.22;99669.77;1625583;88;21724;-77
2021/05/10 04:38:43;;;;;;;2.87;1.80;;;;;;;10.79;60.84;99672.13;1625617;88;21264;-78
2021/05/10 04:41:08;;;;;;;3.55;1.80;;;;;;;10.88;60.81;99672.31;1625246;88;21167;-77
2021/05/10 04:43:33;;;;;;;4.85;2.05;;;;;;;10.95;60.70;99656.30;1625352;88;21303;-77
2021/05/10 04:46:00;;;;;;;2.65;1.60;;;;;;;11.06;60.14;99670.77;1625379;88;21639;-78
2021/05/10 04:48:27;;;;;;;4.97;1.45;;;;;;;11.15;60.51;99667.32;1625398;88;21275;-77
2021/05/10 04:50:54;;;;;;;3.80;2.12;;;;;;;11.25;59.79;99666.91;1625520;88;21140;-77
2021/05/10 04:53:21;;;;;;;4.17;2.25;;;;;;;11.39;59.44;99659.11;1625318;88;21611;-77
2021/05/10 04:55:47;;;;;;;5.67;1.92;;;;;;;11.52;59.43;99665.49;1625511;88;21214;-77
2021/05/10 04:58:13;;;;;;;3.67;2.00;;;;;;;11.65;58.44;99662.12;1625410;88;21178;-77
2021/05/10 05:00:39;;;;;;;3.22;1.45;;;;;;;11.78;58.43;99663.22;1625607;88;21184;-77
2021/05/10 05:03:05;;;;;;;3.60;1.75;;;;;;;11.89;58.23;99655.69;1625427;88;21166;-77
2021/05/10 05:05:31;;;;;;;4.58;1.52;;;;;;;12.01;57.42;99649.77;1625512;88;21214;-77
2021/05/10 05:07:57;;;;;;;4.75;1.60;;;;;;;12.15;57.18;99654.19;1625405;88;21148;-78
2021/05/10 05:10:24;;;;;;;4.35;1.60;;;;;;;12.29;57.10;99658.23;1625596;88;21190;-77
2021/05/10 05:12:50;;;;;;;3.42;1.45;;;;;;;12.42;56.12;99649.53;1625482;88;21218;-77
2021/05/10 05:15:18;;;;;;;2.35;1.90;;;;;;;12.57;55.67;99643.34;1625524;88;21137;-77
2021/05/10 05:17:44;;;;;;;4.05;1.50;;;;;;;12.72;55.81;99646.87;1625373;88;21510;-77
2021/05/10 05:20:11;;;;;;;5.12;1.50;;;;;;;12.89;55.74;99648.78;1625567;88;21156;-77
2021/05/10 05:22:38;;;;;;;3.20;1.85;;;;;;;12.99;55.65;99644.29;1625397;88;21625;-77
2021/05/10 05:25:06;;;;;;;4.55;2.83;;;;;;;13.13;55.31;99642.53;1625518;88;21627;-77
2021/05/10 05:27:32;;;;;;;2.42;1.40;;;;;;;13.26;55.15;99642.24;1625443;88;21723;-77
2021/05/10 05:29:58;;;;;;;2.47;1.25;;;;;;;13.40;54.67;99630.82;1625479;88;21127;-77
2021/05/10 05:32:24;;;;;;;5.83;1.50;;;;;;;13.54;54.15;99628.50;1625098;88;21338;-77
2021/05/10 05:34:51;;;;;;;4.78;2.55;;;;;;;13.72;53.65;99623.73;1625583;88;21110;-78
2021/05/10 05:37:17;;;;;;;2.90;1.57;;;;;;;13.88;53.32;99626.56;1625339;88;21170;-77
2021/05/10 05:39:43;;;;;;;4.62;1.50;;;;;;;14.00;53.73;99623.22;1625384;88;21358;-77
2021/05/10 05:42:09;;;;;;;4.58;2.02;;;;;;;14.10;53.38;99625.80;1625291;88;21170;-78
2021/05/10 05:44:37;;;;;;;3.12;1.80;;;;;;;14.19;53.32;99619.09;1625443;88;21208;-77
2021/05/10 05:47:04;;;;;;;4.15;1.52;;;;;;;14.27;52.62;99622.30;1625396;88;21200;-77
2021/05/10 05:49:34;;;;;;;4.33;2.45;;;;;;;14.38;52.23;99628.73;1625584;88;21193;-77
2021/05/10 05:52:03;;;;;;;4.15;1.70;;;;;;;14.49;51.56;99625.82;1625190;88;21632;-77
2021/05/10 05:54:30;;;;;;;4.33;1.42;;;;;;;14.61;51.36;99621.15;1623816;86;21595;-79
2021/05/10 05:56:56;;;;;;;4.10;1.70;;;;;;;14.73;51.58;99627.86;1625337;88;21344;-79
2021/05/10 05:59:22;;;;;;;3.98;1.70;;;;;;;14.82;50.99;99634.07;1625412;88;21154;-80
2021/05/10 06:01:48;;;;;;;2.08;1.52;;;;;;;14.90;50.64;99627.47;1624208;87;21332;-80
2021/05/10 06:04:15;;;;;;;5.72;1.47;;;;;;;14.98;50.08;99629.37;1621624;87;21250;-79
2021/05/10 06:06:41;;;;;;;3.05;1.25;;;;;;;15.07;49.97;99624.45;1643768;86;21139;-79
2021/05/10 06:09:09;;;;;;;1.90;1.70;;;;;;;15.15;49.06;99617.00;1625633;88;21320;-80
2021/05/10 06:11:35;;;;;;;2.02;1.42;;;;;;;15.21;49.34;99618.53;1625352;88;21206;-80
2021/05/10 06:14:01;;;;;;;5.15;1.98;;;;;;;15.31;49.75;99621.58;1623621;87;21160;-80
2021/05/10 06:16:30;;;;;;;3.83;1.45;;;;;;;15.37;48.89;99613.80;1624273;87;21124;-80
2021/05/10 06:18:57;;;;;;;3.08;1.50;;;;;;;15.45;48.92;99606.34;1624349;88;21136;-80
2021/05/10 06:21:23;;;;;;;2.27;1.50;;;;;;;15.54;48.30;99618.69;1629630;88;21172;-79
2021/05/10 06:23:50;;;;;;;4.47;1.42;;;;;;;15.63;48.41;99614.20;1685858;85;21602;-79
2021/05/10 06:26:16;;;;;;;1.90;1.40;;;;;;;15.72;48.07;99611.95;1673400;85;21269;-79
2021/05/10 06:28:42;;;;;;;3.30;1.80;;;;;;;15.82;48.01;99603.33;1666862;86;21111;-78
2021/05/10 06:31:10;;;;;;;1.87;1.45;;;;;;;15.90;47.92;99601.20;1665944;85;21598;-79
2021/05/10 06:33:38;;;;;;;3.75;1.40;;;;;;;16.00;48.12;99602.39;1666029;85;21181;-79
2021/05/10 06:36:05;;;;;;;2.35;1.12;;;;;;;16.10;48.18;99600.41;1665690;84;21210;-79
2021/05/10 06:38:33;;;;;;;4.10;1.72;;;;;;;16.21;46.51;99596.08;1665719;85;21165;-79
2021/05/10 06:41:00;;;;;;;4.20;1.22;;;;;;;16.30;47.81;99596.92;1665926;86;21184;-80
2021/05/10 06:43:26;;;;;;;3.08;0.95;;;;;;;16.39;46.37;99597.27;1665803;85;21174;-81
2021/05/10 06:45:52;;;;;;;3.58;1.45;;;;;;;16.47;45.80;99599.91;1666395;86;21170;-80
2021/05/10 06:48:33;;;;;;;3.58;1.52;;;;;;;16.57;46.58;99604.56;1667165;86;21140;-79
2021/05/10 06:51:00;;;;;;;1.57;1.35;;;;;;;16.60;45.79;99580.77;1667183;86;21143;-79
2021/05/10 06:53:26;;;;;;;3.80;1.40;;;;;;;16.78;45.33;99596.10;1666961;86;21147;-80
2021/05/10 06:55:54;;;;;;;5.72;1.50;;;;;;;16.90;46.37;99603.23;1666882;86;21173;-79
2021/05/10 06:58:20;;;;;;;2.40;1.30;;;;;;;17.00;45.74;99604.37;1665736;85;21169;-80
2021/05/10 07:00:49;;;;;;;4.60;1.65;;;;;;;17.11;45.42;99594.70;1666589;85;21160;-78
2021/05/10 07:03:15;;;;;;;4.37;1.05;;;;;;;17.22;43.84;99576.16;1667192;85;21173;-80
2021/05/10 07:05:46;;;;;;;4.17;1.55;;;;;;;17.31;44.66;99585.80;1667258;86;21643;-80
2021/05/10 07:08:16;;;;;;;1.70;1.15;;;;;;;17.41;45.21;99584.27;1667080;86;21197;-79
2021/05/10 07:10:49;;;;;;;7.12;1.40;;;;;;;17.50;44.30;99576.02;1683306;85;21121;-79
2021/05/10 07:13:15;;;;;;;;;;;;;;;17.59;44.59;99572.81;1669991;85;21169;-80
2021/05/10 07:15:41;;;;;;;2.92;1.10;;;;;;;17.70;45.11;99584.92;1669035;85;20211;-79
2021/05/10 07:18:12;;;;;;;4.42;1.32;;;;;;;17.79;44.62;99587.41;1667543;85;21173;-79
2021/05/10 07:20:41;;;;;;;4.12;1.17;;;;;;;17.90;43.35;99588.01;1665759;86;21155;-79
2021/05/10 07:23:08;;;;;;;3.37;1.47;;;;;;;18.02;44.34;99590.60;1665661;86;21246;-80
2021/05/10 07:25:35;;;;;;;2.25;1.07;;;;;;;18.15;44.32;99603.37;1665783;86;21138;-80
2021/05/10 07:28:02;;;;;;;5.85;1.50;;;;;;;18.26;44.28;99614.48;1657713;86;21613;-78
2021/05/10 07:30:28;;;;;;;3.65;1.60;;;;;;;18.49;43.34;99609.12;1679804;85;21150;-80
2021/05/10 07:32:54;;;;;;;5.67;2.00;;;;;;;18.49;43.34;99609.12;1674258;85;21179;-79
2021/05/10 07:35:21;;;;;;;3.27;1.50;;;;;;;18.61;42.76;99613.51;1666078;86;21275;-80
2021/05/10 07:37:47;;;;;;;4.83;1.60;;;;;;;18.69;42.78;99600.58;1665863;86;21149;-78
2021/05/10 07:40:18;;;;;;;5.00;1.72;;;;;;;18.78;41.88;99592.84;1667214;86;21137;-80
2021/05/10 07:42:42;;;;;;;2.58;1.00;;;;;;;18.89;42.88;99596.42;1667046;84;21149;-80
2021/05/10 07:45:09;;;;;;;4.03;1.30;;;;;;;19.04;42.73;99612.97;1667176;86;21291;-80
2021/05/10 07:47:35;;;;;;;1.65;1.30;;;;;;;19.13;41.51;99606.02;1667267;86;21622;-80
2021/05/10 07:50:01;;;;;;;4.67;1.37;;;;;;;19.24;43.10;99611.41;1666971;86;21133;-80
2021/05/10 07:52:28;;;;;;;1.98;1.22;;;;;;;19.39;43.29;99616.77;1667134;86;21164;-80
2021/05/10 07:54:54;;;;;;;1.45;0.93;;;;;;;19.51;43.28;99615.25;1667230;86;21352;-80
2021/05/10 07:57:20;;;;;;;2.60;1.42;;;;;;;19.66;42.74;99614.77;1667082;85;21072;-81
2021/05/10 07:59:48;;;;;;;3.65;1.40;;;;;;;19.79;42.41;99610.59;1667398;85;21289;-82
2021/05/10 08:02:14;;;;;;;2.47;1.62;;;;;;;19.90;42.14;99608.75;1667143;86;21159;-80
2021/05/10 08:04:41;;;;;;;3.05;1.40;;;;;;;20.01;42.33;99601.58;1667533;86;21212;-81
2021/05/10 08:07:08;;;;;;;8.03;1.70;;;;;;;20.14;41.65;99599.03;1681140;85;21715;-79
2021/05/10 08:09:35;;;;;;;4.22;1.42;;;;;;;20.27;42.50;99596.14;1686107;85;21092;-80
2021/05/10 08:12:04;;;;;;;3.05;1.12;;;;;;;20.42;42.76;99606.29;1685848;85;21687;-80
2021/05/10 08:14:30;;;;;;;2.20;1.07;;;;;;;20.54;41.78;99601.28;1666916;85;22372;-80
2021/05/10 08:16:59;;;;;;;1.72;1.20;;;;;;;20.66;40.93;99605.59;1651459;86;21141;-80
2021/05/10 08:19:24;;;;;;;3.55;1.32;;;;;;;20.75;40.97;99591.84;1667123;84;21161;-79
2021/05/10 08:21:52;;;;;;;2.90;1.07;;;;;;;20.87;40.65;99588.64;1666306;86;21137;-80
2021/05/10 08:24:18;;;;;;;2.08;1.22;;;;;;;20.98;40.60;99586.74;1658700;85;21312;-80
2021/05/10 08:26:44;;;;;;;3.35;1.17;;;;;;;21.08;39.43;99576.48;1666842;86;21139;-80
2021/05/10 08:29:10;;;;;;;3.10;1.10;;;;;;;21.18;41.43;99578.81;1667174;86;21707;-80
2021/05/10 08:31:36;;;;;;;3.75;1.35;;;;;;;21.33;40.41;99585.41;1667230;85;21084;-79
2021/05/10 08:34:02;;;;;;;5.45;1.00;;;;;;;21.47;40.88;99575.89;1667139;86;21123;-80
2021/05/10 08:36:28;;;;;;;1.65;1.40;;;;;;;21.62;40.74;99571.73;1666928;85;21818;-83
2021/05/10 08:38:55;;;;;;;1.85;0.90;;;;;;;21.75;39.94;99570.91;1666182;85;21163;-81
2021/05/10 08:41:22;;;;;;;2.45;1.57;;;;;;;21.86;40.33;99567.66;1666776;86;21123;-79
2021/05/10 08:43:48;;;;;;;2.70;1.10;;;;;;;21.97;40.13;99563.02;1643852;86;21594;-79
2021/05/10 08:46:14;;;;;;;5.97;1.40;;;;;;;22.09;40.55;99571.32;1667235;86;21293;-78
2021/05/10 08:48:40;;;;;;;2.72;1.10;;;;;;;22.23;40.62;99566.81;1667261;86;21302;-78
2021/05/10 08:51:06;;;;;;;5.78;0.95;;;;;;;22.36;39.72;99562.79;1667214;86;21568;-78
2021/05/10 08:53:41;;;;;;;2.35;1.12;;;;;;;22.48;40.02;99560.32;1665235;86;21104;-79
2021/05/10 08:56:08;;;;;;;4.12;1.20;;;;;;;22.60;39.65;99561.84;1666404;86;21084;-80
2021/05/10 08:58:41;;;;;;;3.22;1.07;;;;;;;22.68;39.38;99563.00;1666670;86;21621;-78
2021/05/10 09:01:07;;;;;;;;;;;;;;;22.78;39.93;99563.92;1669354;86;21186;-78
2021/05/10 09:03:43;;;;;;;5.28;1.85;;;;;;;22.91;39.03;99566.06;1667139;86;20194;-80
2021/05/10 09:06:14;;;;;;;4.80;1.32;;;;;;;23.00;39.06;99557.29;1673560;85;21397;-79
2021/05/10 09:08:42;;;;;;;3.72;0.82;;;;;;;23.10;38.96;99556.81;1673936;85;21139;-78
2021/05/10 09:11:15;;;;;;;5.47;1.77;;;;;;;23.19;38.52;99566.32;1667201;86;21155;-78
2021/05/10 09:13:45;;;;;;;3.60;1.40;;;;;;;23.26;39.50;99557.70;1666516;85;21205;-78
2021/05/10 09:16:14;;;;;;;3.25;1.20;;;;;;;23.36;38.33;99555.41;1667223;86;21178;-79
2021/05/10 09:18:52;;;;;;;2.15;1.00;;;;;;;23.45;37.51;99550.59;1666792;86;21179;-78
2021/05/10 09:21:25;;;;;;;2.08;0.72;;;;;;;23.49;37.69;99542.91;1667133;86;21080;-80
2021/05/10 09:23:51;;;;;;;3.65;1.02;;;;;;;23.53;38.08;99537.42;1666088;85;21163;-79
2021/05/10 09:26:31;;;;;;;2.67;1.10;;;;;;;23.51;38.11;99537.63;1666927;86;21234;-78
2021/05/10 09:28:58;;;;;;;3.60;1.70;;;;;;;23.49;37.16;99534.31;1665773;85;21193;-78
2021/05/10 09:31:24;;;;;;;3.42;1.12;;;;;;;23.44;37.29;99538.70;1666620;86;21143;-81
2021/05/10 09:33:50;;;;;;;2.92;1.30;;;;;;;23.39;37.55;99546.06;1667065;85;21151;-78
2021/05/10 09:36:36;;;;;;;4.08;1.10;;;;;;;23.34;37.84;99541.33;1666613;86;21178;-79
2021/05/10 09:39:07;;;;;;;3.20;1.17;;;;;;;23.29;37.89;99538.96;1663341;85;21147;-79
2021/05/10 09:41:34;;;;;;;4.25;1.27;;;;;;;23.22;38.78;99552.44;1662786;86;21578;-80
2021/05/10 09:44:07;;;;;;;4.58;1.85;;;;;;;23.17;38.68;99557.13;1666802;85;21143;-78
2021/05/10 09:46:44;;;;;;;4.65;1.20;;;;;;;23.15;38.95;99553.81;1667078;86;21182;-79
2021/05/10 09:49:11;;;;;;;4.58;1.60;;;;;;;23.20;39.66;99547.81;1666776;86;21315;-80
2021/05/10 09:51:38;;;;;;;1.82;1.07;;;;;;;23.39;39.25;99533.95;1667173;85;21181;-80
2021/05/10 09:54:13;;;;;;;5.58;1.32;;;;;;;23.59;39.10;99533.36;1663538;86;21135;-81
2021/05/10 09:56:40;;;;;;;3.90;1.07;;;;;;;23.76;38.31;99528.84;1661848;86;21615;-80
2021/05/10 09:59:15;;;;;;;1.02;0.70;;;;;;;23.88;39.21;99533.81;1662137;86;21123;-80
2021/05/10 10:01:45;;;;;;;3.17;1.25;;;;;;;24.00;37.49;99541.52;1661636;86;21208;-79
2021/05/10 10:04:17;;;;;;;2.02;1.20;;;;;;;24.11;38.57;99537.29;1662263;86;21178;-79
2021/05/10 10:06:45;;;;;;;1.98;1.07;;;;;;;24.27;38.41;99538.63;1664695;86;21222;-81
2021/05/10 10:09:12;;;;;;;3.22;1.20;;;;;;;24.43;37.59;99540.80;1666710;86;21143;-80
2021/05/10 10:11:38;;;;;;;3.10;1.00;;;;;;;24.59;37.85;99546.16;1667133;85;21143;-79
2021/05/10 10:14:05;;;;;;;2.40;1.15;;;;;;;24.74;38.42;99541.22;1666897;86;21594;-80
2021/05/10 10:16:34;;;;;;;3.65;1.22;;;;;;;24.92;37.99;99549.88;1667180;86;21535;-79
2021/05/10 10:19:06;;;;;;;6.22;1.10;;;;;;;25.07;37.02;99552.20;1667404;85;21674;-80
2021/05/10 10:21:37;;;;;;;4.08;1.15;;;;;;;25.22;37.94;99552.69;1667206;86;21080;-78
2021/05/10 10:24:08;;;;;;;4.10;1.10;;;;;;;25.40;36.69;99545.61;1665932;86;21103;-80
2021/05/10 10:26:35;;;;;;;4.83;1.12;;;;;;;25.52;36.33;99555.96;1666982;85;21120;-80
2021/05/10 10:29:12;;;;;;;2.60;0.93;;;;;;;25.62;36.44;99553.53;1658976;86;21167;-81
2021/05/10 10:31:46;;;;;;;2.67;1.00;;;;;;;25.69;36.40;99551.56;1665291;86;21092;-81
2021/05/10 10:34:26;;;;;;;3.60;1.15;;;;;;;25.78;36.42;99538.57;1666793;86;21173;-78
2021/05/10 10:36:59;;;;;;;2.60;0.88;;;;;;;25.87;36.33;99538.58;1666238;86;21157;-80
2021/05/10 10:39:30;;;;;;;5.08;1.25;;;;;;;25.98;35.82;99527.50;1662929;85;21217;-79
2021/05/10 10:42:13;;;;;;;7.73;0.90;;;;;;;26.07;35.56;99534.76;1666369;86;21198;-77
2021/05/10 10:44:49;;;;;;;5.25;1.12;;;;;;;26.13;34.77;99537.35;1667323;85;21558;-77
2021/05/10 10:47:36;;;;;;;3.17;1.37;;;;;;;26.14;34.35;99540.34;1667157;85;21348;-78
2021/05/10 10:50:05;;;;;;;3.15;0.90;;;;;;;26.17;33.30;99533.66;1666945;86;21212;-78
2021/05/10 10:52:31;;;;;;;2.37;0.90;;;;;;;26.14;34.05;99534.13;1666834;84;21120;-79
2021/05/10 10:55:31;;;;;;;4.10;1.17;;;;;;;26.13;34.39;99533.83;1663906;86;21692;-79
2021/05/10 10:58:20;;;;;;;3.33;1.00;;;;;;;26.11;33.83;99531.88;1667177;85;21410;-78
2021/05/10 11:01:07;;;;;;;5.03;1.15;;;;;;;26.06;34.05;99531.73;1666731;85;21187;-79
2021/05/10 11:03:35;;;;;;;4.37;1.10;;;;;;;26.15;33.96;99539.81;1667089;86;21578;-78
2021/05/10 11:06:02;;;;;;;3.15;1.10;;;;;;;26.26;33.70;99542.23;1672518;85;21162;-80
2021/05/10 11:08:50;;;;;;;1.98;1.37;;;;;;;26.36;34.18;99544.68;1677073;85;21159;-80
2021/05/10 11:11:39;;;;;;;3.40;1.30;;;;;;;26.45;34.04;99549.20;1667113;86;21635;-79
2021/05/10 11:14:05;;;;;;;4.40;0.70;;;;;;;26.53;34.45;99548.89;1666813;86;21144;-80
2021/05/10 11:16:55;;;;;;;2.27;1.00;;;;;;;26.62;34.23;99542.08;1667073;86;21103;-80
2021/05/10 11:19:32;;;;;;;3.40;0.98;;;;;;;26.64;33.84;99545.89;1666017;85;21141;-80
2021/05/10 11:22:01;;;;;;;4.95;1.10;;;;;;;26.60;33.57;99548.25;1667105;85;21183;-80
2021/05/10 11:24:31;;;;;;;3.98;1.22;;;;;;;26.60;34.24;99548.78;1666582;85;21131;-80
2021/05/10 11:27:02;;;;;;;1.57;0.82;;;;;;;26.58;33.27;99551.70;1666859;85;21131;-80
2021/05/10 11:29:34;;;;;;;3.95;1.62;;;;;;;26.56;33.53;99548.43;1667505;86;21596;-80
2021/05/10 11:32:13;;;;;;;;;;;;;;;26.56;34.14;99547.08;1669181;86;21182;-80
2021/05/10 11:34:40;;;;;;;6.67;1.27;;;;;;;26.58;32.90;99542.23;1667263;86;20503;-80
2021/05/10 11:37:07;;;;;;;2.12;0.82;;;;;;;26.61;34.05;99543.13;1666590;85;21209;-80
2021/05/10 11:39:41;;;;;;;1.85;1.07;;;;;;;26.70;33.92;99541.43;1662875;86;21131;-79
2021/05/10 11:42:10;;;;;;;2.15;0.95;;;;;;;26.79;33.03;99537.31;1663005;86;21139;-80
2021/05/10 11:44:40;;;;;;;1.50;1.00;;;;;;;26.90;33.42;99541.88;1665435;86;21689;-80
2021/05/10 11:47:11;;;;;;;1.87;1.20;;;;;;;27.00;32.93;99550.22;1667213;86;21119;-80
2021/05/10 11:49:41;;;;;;;3.30;0.90;;;;;;;27.05;33.27;99548.99;1666567;85;21289;-79